sensor_id;sensor_type;location;lat;lon;timestamp;pressure;altitude;pressure_sealevel;temperature;humidity
86388;BME280;77034;44.794;20.518;2024-03-23T00:55:43;99023.28;;;11.53;nan
86388;BME280;77034;44.794;20.518;2024-03-23T00:58:09;99024.44;;;11.52;nan
86388;BME280;77034;44.794;20.518;2024-03-23T01:00:34;99025.81;;;11.42;nan
86388;BME280;77034;44.794;20.518;2024-03-23T01:03:00;99025.16;;;11.49;nan
86388;BME280;77034;44.794;20.518;2024-03-23T01:05:26;99020.06;;;11.48;nan
86388;BME280;77034;44.794;20.518;2024-03-23T01:07:51;99019.63;;;11.45;nan
86388;BME280;77034;44.794;20.518;2024-03-23T01:10:17;99013.41;;;11.49;nan
86388;BME280;77034;44.794;20.518;2024-03-23T01:12:43;99018.47;;;11.46;nan
86388;BME280;77034;44.794;20.518;2024-03-23T01:15:08;99017.16;;;11.40;nan
86388;BME280;77034;44.794;20.518;2024-03-23T01:17:34;99011.41;;;11.45;nan
86388;BME280;77034;44.794;20.518;2024-03-23T01:20:00;99021.22;;;11.46;nan
86388;BME280;77034;44.794;20.518;2024-03-23T01:22:25;99018.97;;;11.52;nan
86388;BME280;77034;44.794;20.518;2024-03-23T01:24:51;99010.59;;;11.45;nan
86388;BME280;77034;44.794;20.518;2024-03-23T01:27:16;98996.75;;;11.38;nan
86388;BME280;77034;44.794;20.518;2024-03-23T01:29:42;99004.75;;;11.46;nan
86388;BME280;77034;44.794;20.518;2024-03-23T01:32:08;99005.47;;;11.43;nan
86388;BME280;77034;44.794;20.518;2024-03-23T01:34:33;98999.63;;;11.45;nan
86388;BME280;77034;44.794;20.518;2024-03-23T01:36:59;99000.63;;;11.37;nan
86388;BME280;77034;44.794;20.518;2024-03-23T01:39:25;99002.31;;;11.41;nan
86388;BME280;77034;44.794;20.518;2024-03-23T01:41:50;98998.25;;;11.35;nan
86388;BME280;77034;44.794;20.518;2024-03-23T01:44:16;98993.66;;;11.39;nan
86388;BME280;77034;44.794;20.518;2024-03-23T01:46:43;98997.69;;;11.45;nan
86388;BME280;77034;44.794;20.518;2024-03-23T01:49:09;98997.69;;;11.45;nan
86388;BME280;77034;44.794;20.518;2024-03-23T01:51:36;98989.03;;;11.43;nan
86388;BME280;77034;44.794;20.518;2024-03-23T01:54:03;98995.22;;;11.40;nan
86388;BME280;77034;44.794;20.518;2024-03-23T01:56:29;98990.03;;;11.35;nan
86388;BME280;77034;44.794;20.518;2024-03-23T01:58:55;98984.19;;;11.37;nan
86388;BME280;77034;44.794;20.518;2024-03-23T02:01:21;98982.22;;;11.37;nan
86388;BME280;77034;44.794;20.518;2024-03-23T02:03:47;98977.22;;;11.39;nan
86388;BME280;77034;44.794;20.518;2024-03-23T02:06:12;98980.09;;;11.46;nan
86388;BME280;77034;44.794;20.518;2024-03-23T02:08:39;98974.09;;;11.41;nan
86388;BME280;77034;44.794;20.518;2024-03-23T02:11:05;98981.69;;;11.48;nan
86388;BME280;77034;44.794;20.518;2024-03-23T02:13:31;98986.81;;;11.49;nan
86388;BME280;77034;44.794;20.518;2024-03-23T02:15:57;98978.38;;;11.58;nan
86388;BME280;77034;44.794;20.518;2024-03-23T02:18:22;98972.59;;;11.43;nan
86388;BME280;77034;44.794;20.518;2024-03-23T02:20:48;98972.53;;;11.40;nan
86388;BME280;77034;44.794;20.518;2024-03-23T02:23:15;98967.84;;;11.40;nan
86388;BME280;77034;44.794;20.518;2024-03-23T02:25:41;98973.63;;;11.55;nan
86388;BME280;77034;44.794;20.518;2024-03-23T02:28:07;98967.97;;;11.48;nan
86388;BME280;77034;44.794;20.518;2024-03-23T02:30:32;98961.78;;;11.51;nan
86388;BME280;77034;44.794;20.518;2024-03-23T02:32:58;98964.09;;;11.49;nan
86388;BME280;77034;44.794;20.518;2024-03-23T02:35:23;98955.44;;;11.46;nan
86388;BME280;77034;44.794;20.518;2024-03-23T02:37:49;98952.25;;;11.44;nan
86388;BME280;77034;44.794;20.518;2024-03-23T02:40:16;98948.22;;;11.38;nan
86388;BME280;77034;44.794;20.518;2024-03-23T02:42:41;98949.44;;;11.41;nan
86388;BME280;77034;44.794;20.518;2024-03-23T02:45:07;98938.69;;;11.32;nan
86388;BME280;77034;44.794;20.518;2024-03-23T02:47:33;98942.91;;;11.45;nan
86388;BME280;77034;44.794;20.518;2024-03-23T02:49:59;98941.59;;;11.39;nan
86388;BME280;77034;44.794;20.518;2024-03-23T02:52:24;98944.88;;;11.29;nan
86388;BME280;77034;44.794;20.518;2024-03-23T02:54:50;98938.69;;;11.32;nan
86388;BME280;77034;44.794;20.518;2024-03-23T02:57:15;98938.53;;;11.25;nan
86388;BME280;77034;44.794;20.518;2024-03-23T02:59:41;98933.22;;;11.32;nan
86388;BME280;77034;44.794;20.518;2024-03-23T03:02:07;98920.22;;;11.29;nan
86388;BME280;77034;44.794;20.518;2024-03-23T03:04:32;98927.16;;;11.62;nan
86388;BME280;77034;44.794;20.518;2024-03-23T03:06:58;98915.81;;;11.63;nan
86388;BME280;77034;44.794;20.518;2024-03-23T03:09:24;98927.06;;;11.58;nan
86388;BME280;77034;44.794;20.518;2024-03-23T03:11:49;98925.25;;;11.66;nan
86388;BME280;77034;44.794;20.518;2024-03-23T03:14:15;98926.13;;;11.70;nan
86388;BME280;77034;44.794;20.518;2024-03-23T03:16:41;98921.09;;;11.72;nan
86388;BME280;77034;44.794;20.518;2024-03-23T03:19:06;98915.88;;;11.67;nan
86388;BME280;77034;44.794;20.518;2024-03-23T03:21:32;98922.47;;;11.62;nan
86388;BME280;77034;44.794;20.518;2024-03-23T03:23:58;98905.66;;;11.64;nan
86388;BME280;77034;44.794;20.518;2024-03-23T03:26:23;98912.28;;;11.63;nan
86388;BME280;77034;44.794;20.518;2024-03-23T03:28:50;98903.63;;;11.61;nan
86388;BME280;77034;44.794;20.518;2024-03-23T03:34:03;98903.75;;;11.68;nan
86388;BME280;77034;44.794;20.518;2024-03-23T03:36:29;98905.78;;;11.71;nan
86388;BME280;77034;44.794;20.518;2024-03-23T03:38:55;98907.78;;;11.74;nan
86388;BME280;77034;44.794;20.518;2024-03-23T03:41:20;98906.63;;;11.75;nan
86388;BME280;77034;44.794;20.518;2024-03-23T03:43:46;98889.19;;;11.64;nan
86388;BME280;77034;44.794;20.518;2024-03-23T03:46:11;98896.63;;;11.63;nan
86388;BME280;77034;44.794;20.518;2024-03-23T03:48:37;98895.63;;;11.71;nan
86388;BME280;77034;44.794;20.518;2024-03-23T03:51:04;98889.72;;;11.69;nan
86388;BME280;77034;44.794;20.518;2024-03-23T03:53:29;98886.47;;;11.64;nan
86388;BME280;77034;44.794;20.518;2024-03-23T03:55:56;98888.41;;;11.63;nan
86388;BME280;77034;44.794;20.518;2024-03-23T03:58:22;98892.44;;;11.69;nan
86388;BME280;77034;44.794;20.518;2024-03-23T04:00:47;98890.06;;;11.68;nan
86388;BME280;77034;44.794;20.518;2024-03-23T04:03:13;98886.97;;;11.69;nan
86388;BME280;77034;44.794;20.518;2024-03-23T04:05:39;98892.22;;;11.78;nan
86388;BME280;77034;44.794;20.518;2024-03-23T04:08:07;98887.44;;;11.75;nan
86388;BME280;77034;44.794;20.518;2024-03-23T04:10:32;98888.69;;;11.78;nan
86388;BME280;77034;44.794;20.518;2024-03-23T04:12:58;98890.19;;;11.75;nan
86388;BME280;77034;44.794;20.518;2024-03-23T04:15:23;98898.84;;;11.77;nan
86388;BME280;77034;44.794;20.518;2024-03-23T04:17:49;98891.06;;;11.79;nan
86388;BME280;77034;44.794;20.518;2024-03-23T04:20:15;98895.31;;;11.77;nan
86388;BME280;77034;44.794;20.518;2024-03-23T04:22:45;98901.59;;;11.77;nan
86388;BME280;77034;44.794;20.518;2024-03-23T04:25:11;98899.16;;;11.72;nan
86388;BME280;77034;44.794;20.518;2024-03-23T04:27:37;98894.38;;;11.88;nan
86388;BME280;77034;44.794;20.518;2024-03-23T04:30:03;98899.88;;;11.88;nan
86388;BME280;77034;44.794;20.518;2024-03-23T04:32:35;98902.09;;;11.83;nan
86388;BME280;77034;44.794;20.518;2024-03-23T04:35:00;98893.50;;;11.84;nan
86388;BME280;77034;44.794;20.518;2024-03-23T04:37:26;98899.78;;;11.85;nan
86388;BME280;77034;44.794;20.518;2024-03-23T04:39:51;98897.25;;;11.76;nan
86388;BME280;77034;44.794;20.518;2024-03-23T04:42:18;98894.38;;;11.88;nan
86388;BME280;77034;44.794;20.518;2024-03-23T04:44:43;98884.78;;;11.79;nan
86388;BME280;77034;44.794;20.518;2024-03-23T04:47:10;98895.94;;;12.09;nan
86388;BME280;77034;44.794;20.518;2024-03-23T04:49:36;98895.59;;;12.14;nan
86388;BME280;77034;44.794;20.518;2024-03-23T04:52:05;98893.91;;;12.55;nan
86388;BME280;77034;44.794;20.518;2024-03-23T04:54:30;98899.19;;;12.94;nan
86388;BME280;77034;44.794;20.518;2024-03-23T04:56:57;98893.50;;;13.09;nan
86388;BME280;77034;44.794;20.518;2024-03-23T04:59:23;98893.94;;;14.16;nan
86388;BME280;77034;44.794;20.518;2024-03-23T05:01:49;98888.09;;;14.24;nan
86388;BME280;77034;44.794;20.518;2024-03-23T05:04:14;98884.69;;;14.97;nan
86388;BME280;77034;44.794;20.518;2024-03-23T05:06:40;98882.25;;;15.65;nan
86388;BME280;77034;44.794;20.518;2024-03-23T05:09:06;98886.25;;;15.96;nan
86388;BME280;77034;44.794;20.518;2024-03-23T05:11:33;98880.31;;;16.93;nan
86388;BME280;77034;44.794;20.518;2024-03-23T05:13:59;98878.59;;;17.35;nan
86388;BME280;77034;44.794;20.518;2024-03-23T05:16:25;98886.31;;;17.76;nan
86388;BME280;77034;44.794;20.518;2024-03-23T05:18:51;98877.75;;;19.05;nan
86388;BME280;77034;44.794;20.518;2024-03-23T05:21:17;98890.69;;;19.83;nan
86388;BME280;77034;44.794;20.518;2024-03-23T05:23:42;98877.56;;;20.61;nan
86388;BME280;77034;44.794;20.518;2024-03-23T05:26:09;98884.19;;;21.70;nan
86388;BME280;77034;44.794;20.518;2024-03-23T05:28:35;98886.41;;;22.31;nan
86388;BME280;77034;44.794;20.518;2024-03-23T05:31:01;98879.16;;;22.50;nan
86388;BME280;77034;44.794;20.518;2024-03-23T05:33:27;98878.25;;;23.02;nan
86388;BME280;77034;44.794;20.518;2024-03-23T05:36:00;98877.97;;;23.54;nan
86388;BME280;77034;44.794;20.518;2024-03-23T05:38:26;98875.91;;;23.42;nan
86388;BME280;77034;44.794;20.518;2024-03-23T05:41:00;98887.22;;;25.35;nan
86388;BME280;77034;44.794;20.518;2024-03-23T05:43:26;98887.53;;;25.81;nan
86388;BME280;77034;44.794;20.518;2024-03-23T05:45:56;98880.19;;;25.30;nan
86388;BME280;77034;44.794;20.518;2024-03-23T05:48:22;98882.06;;;24.04;nan
86388;BME280;77034;44.794;20.518;2024-03-23T05:50:49;98874.72;;;25.27;nan
86388;BME280;77034;44.794;20.518;2024-03-23T05:53:16;98874.94;;;24.98;nan
86388;BME280;77034;44.794;20.518;2024-03-23T05:55:42;98873.53;;;26.70;nan
86388;BME280;77034;44.794;20.518;2024-03-23T05:58:08;98871.81;;;27.28;nan
86388;BME280;77034;44.794;20.518;2024-03-23T06:00:33;98874.31;;;25.59;nan
86388;BME280;77034;44.794;20.518;2024-03-23T06:02:59;98885.22;;;26.87;nan
86388;BME280;77034;44.794;20.518;2024-03-23T06:05:25;98879.41;;;27.55;nan
86388;BME280;77034;44.794;20.518;2024-03-23T06:07:50;98883.03;;;26.91;nan
86388;BME280;77034;44.794;20.518;2024-03-23T06:10:16;98871.84;;;27.19;nan
86388;BME280;77034;44.794;20.518;2024-03-23T06:12:42;98889.84;;;29.73;nan
86388;BME280;77034;44.794;20.518;2024-03-23T06:15:08;98877.13;;;27.35;nan
86388;BME280;77034;44.794;20.518;2024-03-23T06:17:36;98881.75;;;31.27;nan
86388;BME280;77034;44.794;20.518;2024-03-23T06:20:02;98875.25;;;28.83;nan
86388;BME280;77034;44.794;20.518;2024-03-23T06:22:28;98880.19;;;28.49;nan
86388;BME280;77034;44.794;20.518;2024-03-23T06:24:53;98877.00;;;30.37;nan
86388;BME280;77034;44.794;20.518;2024-03-23T06:27:19;98874.16;;;30.37;nan
86388;BME280;77034;44.794;20.518;2024-03-23T06:29:44;98884.88;;;30.89;nan
86388;BME280;77034;44.794;20.518;2024-03-23T06:32:10;98881.84;;;30.72;nan
86388;BME280;77034;44.794;20.518;2024-03-23T06:34:35;98887.84;;;31.72;nan
86388;BME280;77034;44.794;20.518;2024-03-23T06:37:01;98873.88;;;32.26;nan
86388;BME280;77034;44.794;20.518;2024-03-23T06:39:28;98877.38;;;32.10;nan
86388;BME280;77034;44.794;20.518;2024-03-23T06:41:54;98878.81;;;30.96;nan
86388;BME280;77034;44.794;20.518;2024-03-23T06:44:20;98865.31;;;31.83;nan
86388;BME280;77034;44.794;20.518;2024-03-23T06:46:46;98869.59;;;30.60;nan
86388;BME280;77034;44.794;20.518;2024-03-23T06:49:14;98869.28;;;31.39;nan
86388;BME280;77034;44.794;20.518;2024-03-23T06:51:40;98871.44;;;32.39;nan
86388;BME280;77034;44.794;20.518;2024-03-23T06:54:06;98866.13;;;32.21;nan
86388;BME280;77034;44.794;20.518;2024-03-23T06:56:32;98869.50;;;32.25;nan
86388;BME280;77034;44.794;20.518;2024-03-23T06:58:58;98864.34;;;31.86;nan
86388;BME280;77034;44.794;20.518;2024-03-23T07:01:24;98867.34;;;35.32;nan
86388;BME280;77034;44.794;20.518;2024-03-23T07:03:50;98869.91;;;32.12;nan
86388;BME280;77034;44.794;20.518;2024-03-23T07:06:15;98880.00;;;33.04;nan
86388;BME280;77034;44.794;20.518;2024-03-23T07:08:41;98871.91;;;34.07;nan
86388;BME280;77034;44.794;20.518;2024-03-23T07:11:06;98869.56;;;34.00;nan
86388;BME280;77034;44.794;20.518;2024-03-23T07:13:32;98874.09;;;35.29;nan
86388;BME280;77034;44.794;20.518;2024-03-23T07:15:58;98876.63;;;35.43;nan
86388;BME280;77034;44.794;20.518;2024-03-23T07:18:25;98853.84;;;34.96;nan
86388;BME280;77034;44.794;20.518;2024-03-23T07:20:57;98866.00;;;35.38;nan
86388;BME280;77034;44.794;20.518;2024-03-23T07:23:24;98851.47;;;34.03;nan
86388;BME280;77034;44.794;20.518;2024-03-23T07:26:03;98858.44;;;35.52;nan
86388;BME280;77034;44.794;20.518;2024-03-23T07:28:30;98855.19;;;35.72;nan
86388;BME280;77034;44.794;20.518;2024-03-23T07:33:31;98856.22;;;35.69;nan
86388;BME280;77034;44.794;20.518;2024-03-23T07:35:57;98854.06;;;37.41;nan
86388;BME280;77034;44.794;20.518;2024-03-23T07:38:26;98850.59;;;36.48;nan
86388;BME280;77034;44.794;20.518;2024-03-23T07:40:52;98841.03;;;36.46;nan
86388;BME280;77034;44.794;20.518;2024-03-23T07:43:22;98842.84;;;37.62;nan
86388;BME280;77034;44.794;20.518;2024-03-23T07:45:53;98840.66;;;34.88;nan
86388;BME280;77034;44.794;20.518;2024-03-23T07:48:21;98836.34;;;36.92;nan
86388;BME280;77034;44.794;20.518;2024-03-23T07:51:17;98836.59;;;36.69;nan
86388;BME280;77034;44.794;20.518;2024-03-23T07:53:44;98828.78;;;36.26;nan
86388;BME280;77034;44.794;20.518;2024-03-23T07:56:11;98829.94;;;36.85;nan
86388;BME280;77034;44.794;20.518;2024-03-23T07:58:37;98826.75;;;37.46;nan
86388;BME280;77034;44.794;20.518;2024-03-23T08:01:05;98826.44;;;38.40;nan
86388;BME280;77034;44.794;20.518;2024-03-23T08:03:33;98819.09;;;36.35;nan
86388;BME280;77034;44.794;20.518;2024-03-23T08:06:12;98821.22;;;36.97;nan
86388;BME280;77034;44.794;20.518;2024-03-23T08:08:39;98808.41;;;31.50;nan
86388;BME280;77034;44.794;20.518;2024-03-23T08:11:05;98812.75;;;33.83;nan
86388;BME280;77034;44.794;20.518;2024-03-23T08:13:33;98806.75;;;34.21;nan
86388;BME280;77034;44.794;20.518;2024-03-23T08:16:01;98814.41;;;35.53;nan
86388;BME280;77034;44.794;20.518;2024-03-23T08:18:28;98819.00;;;36.65;nan
86388;BME280;77034;44.794;20.518;2024-03-23T08:21:04;98827.88;;;39.75;nan
86388;BME280;77034;44.794;20.518;2024-03-23T08:23:32;98820.88;;;36.81;nan
86388;BME280;77034;44.794;20.518;2024-03-23T08:26:11;98827.03;;;37.93;nan
86388;BME280;77034;44.794;20.518;2024-03-23T08:28:37;98821.44;;;36.37;nan
86388;BME280;77034;44.794;20.518;2024-03-23T08:31:08;98813.09;;;35.54;nan
86388;BME280;77034;44.794;20.518;2024-03-23T08:33:34;98826.72;;;39.57;nan
86388;BME280;77034;44.794;20.518;2024-03-23T08:36:08;98809.84;;;34.34;nan
86388;BME280;77034;44.794;20.518;2024-03-23T08:38:34;98806.50;;;38.34;nan
86388;BME280;77034;44.794;20.518;2024-03-23T08:41:05;98806.81;;;37.72;nan
86388;BME280;77034;44.794;20.518;2024-03-23T08:43:39;98807.00;;;38.86;nan
86388;BME280;77034;44.794;20.518;2024-03-23T08:46:15;98812.41;;;42.20;nan
86388;BME280;77034;44.794;20.518;2024-03-23T08:48:45;98795.28;;;35.78;nan
86388;BME280;77034;44.794;20.518;2024-03-23T08:51:13;98780.00;;;34.68;nan
86388;BME280;77034;44.794;20.518;2024-03-23T08:53:39;98787.72;;;38.25;nan
86388;BME280;77034;44.794;20.518;2024-03-23T08:56:07;98780.00;;;33.43;nan
86388;BME280;77034;44.794;20.518;2024-03-23T08:58:34;98773.47;;;34.10;nan
86388;BME280;77034;44.794;20.518;2024-03-23T09:01:09;98780.25;;;33.90;nan
86388;BME280;77034;44.794;20.518;2024-03-23T09:03:36;98773.94;;;35.66;nan
86388;BME280;77034;44.794;20.518;2024-03-23T09:06:08;98770.66;;;34.74;nan
86388;BME280;77034;44.794;20.518;2024-03-23T09:08:34;98767.69;;;34.49;nan
86388;BME280;77034;44.794;20.518;2024-03-23T09:11:05;98758.13;;;30.41;nan
86388;BME280;77034;44.794;20.518;2024-03-23T09:13:33;98749.28;;;29.57;nan
86388;BME280;77034;44.794;20.518;2024-03-23T09:15:59;98744.03;;;27.38;nan
86388;BME280;77034;44.794;20.518;2024-03-23T09:18:25;98741.19;;;27.47;nan
86388;BME280;77034;44.794;20.518;2024-03-23T09:20:51;98743.94;;;29.15;nan
86388;BME280;77034;44.794;20.518;2024-03-23T09:23:20;98736.44;;;28.20;nan
86388;BME280;77034;44.794;20.518;2024-03-23T09:25:46;98738.59;;;28.01;nan
86388;BME280;77034;44.794;20.518;2024-03-23T09:28:14;98724.28;;;27.14;nan
86388;BME280;77034;44.794;20.518;2024-03-23T09:30:39;98718.88;;;29.32;nan
86388;BME280;77034;44.794;20.518;2024-03-23T09:33:09;98719.47;;;30.26;nan
86388;BME280;77034;44.794;20.518;2024-03-23T09:35:42;98711.88;;;26.69;nan
86388;BME280;77034;44.794;20.518;2024-03-23T09:38:11;98717.22;;;28.96;nan
86388;BME280;77034;44.794;20.518;2024-03-23T09:40:42;98702.28;;;28.36;nan
86388;BME280;77034;44.794;20.518;2024-03-23T09:43:09;98712.91;;;26.99;nan
86388;BME280;77034;44.794;20.518;2024-03-23T09:45:39;98697.94;;;25.74;nan
86388;BME280;77034;44.794;20.518;2024-03-23T09:48:08;98692.84;;;26.00;nan
86388;BME280;77034;44.794;20.518;2024-03-23T09:53:07;98684.44;;;26.74;nan
86388;BME280;77034;44.794;20.518;2024-03-23T09:55:33;98678.56;;;25.18;nan
86388;BME280;77034;44.794;20.518;2024-03-23T09:58:01;98675.25;;;24.57;nan
86388;BME280;77034;44.794;20.518;2024-03-23T10:00:27;98675.69;;;24.56;nan
86388;BME280;77034;44.794;20.518;2024-03-23T10:02:56;98668.63;;;24.42;nan
86388;BME280;77034;44.794;20.518;2024-03-23T10:05:27;98664.53;;;24.34;nan
86388;BME280;77034;44.794;20.518;2024-03-23T10:07:53;98663.16;;;24.04;nan
86388;BME280;77034;44.794;20.518;2024-03-23T10:10:19;98664.34;;;25.03;nan
86388;BME280;77034;44.794;20.518;2024-03-23T10:12:47;98648.19;;;25.07;nan
86388;BME280;77034;44.794;20.518;2024-03-23T10:15:22;98662.50;;;25.09;nan
86388;BME280;77034;44.794;20.518;2024-03-23T10:17:49;98649.06;;;24.29;nan
86388;BME280;77034;44.794;20.518;2024-03-23T10:20:19;98658.47;;;24.57;nan
86388;BME280;77034;44.794;20.518;2024-03-23T10:22:48;98644.66;;;23.84;nan
86388;BME280;77034;44.794;20.518;2024-03-23T10:25:15;98643.91;;;24.71;nan
86388;BME280;77034;44.794;20.518;2024-03-23T10:27:42;98632.38;;;24.91;nan
86388;BME280;77034;44.794;20.518;2024-03-23T10:30:15;98626.59;;;23.98;nan
86388;BME280;77034;44.794;20.518;2024-03-23T10:32:43;98626.44;;;23.07;nan
86388;BME280;77034;44.794;20.518;2024-03-23T10:35:15;98620.66;;;23.61;nan
86388;BME280;77034;44.794;20.518;2024-03-23T10:37:44;98608.19;;;22.77;nan
86388;BME280;77034;44.794;20.518;2024-03-23T10:40:12;98614.69;;;23.25;nan
86388;BME280;77034;44.794;20.518;2024-03-23T10:42:38;98599.19;;;23.11;nan
86388;BME280;77034;44.794;20.518;2024-03-23T10:45:08;98591.47;;;23.02;nan
86388;BME280;77034;44.794;20.518;2024-03-23T10:47:38;98586.06;;;22.44;nan
86388;BME280;77034;44.794;20.518;2024-03-23T10:50:06;98587.78;;;22.67;nan
86388;BME280;77034;44.794;20.518;2024-03-23T10:52:35;98587.22;;;22.60;nan
86388;BME280;77034;44.794;20.518;2024-03-23T10:55:06;98584.50;;;22.56;nan
86388;BME280;77034;44.794;20.518;2024-03-23T10:57:50;98575.59;;;22.74;nan
86388;BME280;77034;44.794;20.518;2024-03-23T11:00:17;98572.34;;;22.63;nan
86388;BME280;77034;44.794;20.518;2024-03-23T11:02:43;98562.00;;;22.76;nan
86388;BME280;77034;44.794;20.518;2024-03-23T11:05:38;98560.91;;;22.86;nan
86388;BME280;77034;44.794;20.518;2024-03-23T11:08:04;98555.16;;;21.97;nan
86388;BME280;77034;44.794;20.518;2024-03-23T11:10:30;98545.44;;;22.43;nan
86388;BME280;77034;44.794;20.518;2024-03-23T11:13:21;98545.59;;;22.11;nan
86388;BME280;77034;44.794;20.518;2024-03-23T11:15:45;98540.09;;;22.36;nan
86388;BME280;77034;44.794;20.518;2024-03-23T11:18:11;98534.53;;;22.36;nan
86388;BME280;77034;44.794;20.518;2024-03-23T11:20:37;98531.81;;;21.62;nan
86388;BME280;77034;44.794;20.518;2024-03-23T11:23:04;98526.50;;;21.67;nan
86388;BME280;77034;44.794;20.518;2024-03-23T11:25:30;98525.00;;;21.50;nan
86388;BME280;77034;44.794;20.518;2024-03-23T11:28:10;98521.38;;;21.66;nan
86388;BME280;77034;44.794;20.518;2024-03-23T11:30:38;98510.63;;;21.81;nan
86388;BME280;77034;44.794;20.518;2024-03-23T11:33:04;98512.47;;;21.71;nan
86388;BME280;77034;44.794;20.518;2024-03-23T11:35:34;98500.94;;;21.27;nan
86388;BME280;77034;44.794;20.518;2024-03-23T11:38:18;98502.81;;;21.14;nan
86388;BME280;77034;44.794;20.518;2024-03-23T11:40:48;98485.06;;;21.40;nan
86388;BME280;77034;44.794;20.518;2024-03-23T11:43:15;98491.00;;;21.55;nan
86388;BME280;77034;44.794;20.518;2024-03-23T11:45:45;98476.50;;;21.48;nan
86388;BME280;77034;44.794;20.518;2024-03-23T11:48:33;98465.56;;;21.24;nan
86388;BME280;77034;44.794;20.518;2024-03-23T11:51:00;98460.84;;;20.92;nan
86388;BME280;77034;44.794;20.518;2024-03-23T11:53:26;98459.63;;;20.93;nan
86388;BME280;77034;44.794;20.518;2024-03-23T11:56:01;98465.78;;;21.01;nan
86388;BME280;77034;44.794;20.518;2024-03-23T11:58:28;98454.47;;;21.08;nan
86388;BME280;77034;44.794;20.518;2024-03-23T12:01:00;98448.13;;;21.53;nan
86388;BME280;77034;44.794;20.518;2024-03-23T12:03:29;98440.34;;;21.31;nan
86388;BME280;77034;44.794;20.518;2024-03-23T12:05:58;98438.47;;;21.12;nan
86388;BME280;77034;44.794;20.518;2024-03-23T12:08:29;98423.72;;;20.99;nan
86388;BME280;77034;44.794;20.518;2024-03-23T12:11:12;98413.75;;;21.14;nan
86388;BME280;77034;44.794;20.518;2024-03-23T12:13:43;98408.66;;;21.12;nan
86388;BME280;77034;44.794;20.518;2024-03-23T12:16:20;98415.50;;;21.08;nan
86388;BME280;77034;44.794;20.518;2024-03-23T12:18:50;98413.94;;;21.07;nan
86388;BME280;77034;44.794;20.518;2024-03-23T12:21:20;98411.03;;;21.27;nan
86388;BME280;77034;44.794;20.518;2024-03-23T12:23:49;98398.09;;;21.20;nan
86388;BME280;77034;44.794;20.518;2024-03-23T12:26:16;98402.63;;;21.14;nan
86388;BME280;77034;44.794;20.518;2024-03-23T12:28:43;98392.69;;;21.29;nan
86388;BME280;77034;44.794;20.518;2024-03-23T12:31:10;98386.06;;;21.23;nan
86388;BME280;77034;44.794;20.518;2024-03-23T12:33:38;98380.75;;;21.00;nan
86388;BME280;77034;44.794;20.518;2024-03-23T12:36:04;98385.47;;;21.32;nan
86388;BME280;77034;44.794;20.518;2024-03-23T12:38:30;98381.69;;;21.09;nan
86388;BME280;77034;44.794;20.518;2024-03-23T12:40:57;98379.41;;;21.21;nan
86388;BME280;77034;44.794;20.518;2024-03-23T12:43:23;98374.25;;;21.35;nan
86388;BME280;77034;44.794;20.518;2024-03-23T12:45:50;98374.47;;;21.12;nan
86388;BME280;77034;44.794;20.518;2024-03-23T12:48:18;98363.88;;;21.07;nan
86388;BME280;77034;44.794;20.518;2024-03-23T12:50:44;98351.75;;;21.42;nan
86388;BME280;77034;44.794;20.518;2024-03-23T12:53:10;98349.63;;;21.05;nan
86388;BME280;77034;44.794;20.518;2024-03-23T12:55:36;98341.91;;;20.96;nan
86388;BME280;77034;44.794;20.518;2024-03-23T12:58:01;98341.22;;;20.63;nan
86388;BME280;77034;44.794;20.518;2024-03-23T13:00:28;98336.06;;;20.78;nan
86388;BME280;77034;44.794;20.518;2024-03-23T13:03:01;98346.38;;;21.06;nan
86388;BME280;77034;44.794;20.518;2024-03-23T13:05:28;98342.50;;;21.04;nan
86388;BME280;77034;44.794;20.518;2024-03-23T13:07:54;98332.72;;;20.83;nan
86388;BME280;77034;44.794;20.518;2024-03-23T13:10:20;98331.84;;;20.57;nan
86388;BME280;77034;44.794;20.518;2024-03-23T13:12:45;98321.25;;;20.81;nan
86388;BME280;77034;44.794;20.518;2024-03-23T13:15:11;98316.03;;;21.12;nan
86388;BME280;77034;44.794;20.518;2024-03-23T13:17:38;98315.25;;;21.11;nan
86388;BME280;77034;44.794;20.518;2024-03-23T13:20:04;98322.69;;;21.14;nan
86388;BME280;77034;44.794;20.518;2024-03-23T13:22:30;98316.22;;;21.34;nan
86388;BME280;77034;44.794;20.518;2024-03-23T13:24:56;98309.47;;;21.18;nan
86388;BME280;77034;44.794;20.518;2024-03-23T13:27:21;98308.91;;;21.24;nan
86388;BME280;77034;44.794;20.518;2024-03-23T13:29:47;98305.47;;;21.19;nan
86388;BME280;77034;44.794;20.518;2024-03-23T13:32:13;98303.44;;;21.07;nan
86388;BME280;77034;44.794;20.518;2024-03-23T13:34:39;98301.41;;;20.95;nan
86388;BME280;77034;44.794;20.518;2024-03-23T13:37:05;98290.56;;;21.26;nan
86388;BME280;77034;44.794;20.518;2024-03-23T13:39:32;98295.00;;;21.24;nan
86388;BME280;77034;44.794;20.518;2024-03-23T13:41:58;98287.63;;;21.17;nan
86388;BME280;77034;44.794;20.518;2024-03-23T13:44:24;98273.88;;;21.26;nan
86388;BME280;77034;44.794;20.518;2024-03-23T13:46:49;98278.94;;;21.44;nan
86388;BME280;77034;44.794;20.518;2024-03-23T13:49:28;98270.50;;;21.18;nan
86388;BME280;77034;44.794;20.518;2024-03-23T13:51:55;98271.19;;;21.23;nan
86388;BME280;77034;44.794;20.518;2024-03-23T13:54:23;98255.69;;;21.22;nan
86388;BME280;77034;44.794;20.518;2024-03-23T13:56:50;98270.22;;;21.29;nan
86388;BME280;77034;44.794;20.518;2024-03-23T13:59:16;98265.78;;;21.57;nan
86388;BME280;77034;44.794;20.518;2024-03-23T14:01:42;98258.03;;;21.23;nan
86388;BME280;77034;44.794;20.518;2024-03-23T14:04:08;98266.81;;;21.09;nan
86388;BME280;77034;44.794;20.518;2024-03-23T14:19:30;98233.34;;;21.25;nan
86388;BME280;77034;44.794;20.518;2024-03-23T14:21:55;98237.75;;;20.97;nan
86388;BME280;77034;44.794;20.518;2024-03-23T14:24:21;98224.28;;;20.96;nan
86388;BME280;77034;44.794;20.518;2024-03-23T14:26:46;98230.03;;;20.88;nan